Time;durP1;ratioP1;P1;durP2;ratioP2;P2;SDS_P1;SDS_P2;PMS_P1;PMS_P2;Temp;Humidity;BMP_temperature;BMP_pressure;BME280_temperature;BME280_humidity;BME280_pressure;Samples;Min_cycle;Max_cycle;Signal;HPM_P1;HPM_P2
2022/05/09 00:01:48;;;;;;;3.77;3.67;;;11.40;99.90;;;;;;5053390;28;20185;-66
2022/05/09 00:04:13;;;;;;;3.60;3.50;;;11.40;99.90;;;;;;5053455;28;20202;-66
2022/05/09 00:06:39;;;;;;;3.50;3.40;;;11.40;99.90;;;;;;5053288;28;20586;-66
2022/05/09 00:09:06;;;;;;;3.67;3.57;;;11.40;99.90;;;;;;5053100;28;20249;-66
2022/05/09 00:11:32;;;;;;;3.60;3.50;;;11.30;99.90;;;;;;5052842;28;20178;-66
2022/05/09 00:13:58;;;;;;;3.63;3.53;;;11.30;99.90;;;;;;5053280;28;20169;-66
2022/05/09 00:16:25;;;;;;;3.90;3.80;;;11.40;99.90;;;;;;5050925;28;20174;-66
2022/05/09 00:18:51;;;;;;;3.50;3.40;;;11.40;99.90;;;;;;5053169;28;20265;-66
2022/05/09 00:21:16;;;;;;;3.80;3.70;;;11.30;99.90;;;;;;5052674;28;20656;-66
2022/05/09 00:23:42;;;;;;;3.50;3.40;;;11.40;99.90;;;;;;5053245;28;20371;-66
2022/05/09 00:26:08;;;;;;;4.37;4.17;;;11.30;99.90;;;;;;5051333;28;20171;-66
2022/05/09 00:28:34;;;;;;;3.60;3.50;;;11.40;99.90;;;;;;5053026;28;20191;-66
2022/05/09 00:30:59;;;;;;;3.63;3.53;;;11.40;99.90;;;;;;5052421;28;20261;-66
2022/05/09 00:33:25;;;;;;;3.70;3.60;;;11.30;99.90;;;;;;5051553;28;20210;-66
2022/05/09 00:35:52;;;;;;;3.40;3.30;;;11.30;99.90;;;;;;5052333;28;20655;-66
2022/05/09 00:38:17;;;;;;;3.60;3.50;;;11.20;99.90;;;;;;5052515;28;20190;-66
2022/05/09 00:41:28;;;;;;;3.67;3.57;;;11.20;99.90;;;;;;5051285;28;20171;-66
2022/05/09 00:43:35;;;;;;;3.70;3.60;;;11.20;99.90;;;;;;5052191;28;20187;-66
2022/05/09 00:46:02;;;;;;;3.70;3.60;;;11.10;99.90;;;;;;5050938;28;20730;-66
2022/05/09 00:48:28;;;;;;;3.60;3.50;;;11.10;99.90;;;;;;5052879;28;20208;-66
2022/05/09 00:50:55;;;;;;;3.50;3.40;;;11.10;99.90;;;;;;5052437;28;20700;-66
2022/05/09 00:53:21;;;;;;;3.67;3.57;;;11.10;99.90;;;;;;5052364;28;20676;-66
2022/05/09 00:55:53;;;;;;;4.23;4.03;;;11.10;99.90;;;;;;5052278;28;20171;-66
2022/05/09 00:58:45;;;;;;;3.67;3.57;;;11.00;99.90;;;;;;5052090;28;20167;-66
2022/05/09 01:01:12;;;;;;;4.00;3.90;;;10.90;99.90;;;;;;5051914;28;20269;-66
2022/05/09 01:03:44;;;;;;;3.83;3.73;;;10.90;99.90;;;;;;5062733;28;20655;-66
2022/05/09 01:06:10;;;;;;;3.70;3.60;;;10.90;99.90;;;;;;5072046;28;20174;-66
2022/05/09 01:08:36;;;;;;;3.70;3.60;;;10.80;99.90;;;;;;5072138;28;20190;-66
2022/05/09 01:11:06;;;;;;;3.97;3.87;;;10.80;99.90;;;;;;5057404;28;20183;-66
2022/05/09 01:13:36;;;;;;;4.00;3.90;;;10.80;99.90;;;;;;5052118;28;20203;-66
2022/05/09 01:16:04;;;;;;;4.00;3.90;;;10.70;99.90;;;;;;5051566;28;20179;-66
2022/05/09 01:18:30;;;;;;;3.63;3.53;;;10.70;99.90;;;;;;5051906;28;20274;-66
2022/05/09 01:20:56;;;;;;;3.80;3.70;;;10.70;99.90;;;;;;5050389;28;20270;-66
2022/05/09 01:23:22;;;;;;;3.80;3.70;;;10.70;99.90;;;;;;5051958;28;20581;-66
2022/05/09 01:25:48;;;;;;;3.80;3.70;;;10.70;99.90;;;;;;5051674;28;20214;-66
2022/05/09 01:28:14;;;;;;;3.83;3.73;;;10.60;99.90;;;;;;5051558;28;20624;-66
2022/05/09 01:30:52;;;;;;;3.40;3.30;;;10.60;99.90;;;;;;5051634;28;20209;-66
2022/05/09 01:33:24;;;;;;;4.57;4.37;;;10.60;99.90;;;;;;5051733;28;20575;-66
2022/05/09 01:35:58;;;;;;;4.20;4.00;;;10.60;99.90;;;;;;5051499;28;20171;-66
2022/05/09 01:38:35;;;;;;;3.90;3.80;;;10.50;99.90;;;;;;5051617;28;20194;-66
2022/05/09 01:41:00;;;;;;;3.93;3.83;;;10.50;99.90;;;;;;5051469;28;20189;-66
2022/05/09 01:43:40;;;;;;;1373.17;679.93;;;10.40;99.90;;;;;;5051968;28;20538;-66
2022/05/09 01:46:16;;;;;;;282.17;62.53;;;10.30;99.90;;;;;;5051237;28;20190;-66
2022/05/09 01:51:27;;;;;;;4.07;3.87;;;10.20;99.90;;;;;;5051751;28;20221;-66
2022/05/09 01:53:53;;;;;;;3.50;3.40;;;10.10;99.90;;;;;;5051807;28;20624;-66
2022/05/09 01:56:21;;;;;;;4.10;3.80;;;10.10;99.90;;;;;;5049840;28;20182;-66
2022/05/09 01:58:47;;;;;;;4.83;4.53;;;10.10;99.90;;;;;;5051741;28;20186;-66
2022/05/09 02:01:12;;;;;;;399.13;68.00;;;10.10;99.90;;;;;;5049947;28;20193;-66
2022/05/09 02:03:38;;;;;;;5.67;5.30;;;10.10;99.90;;;;;;5051657;28;20171;-66
2022/05/09 02:06:04;;;;;;;27.77;6.27;;;10.00;99.90;;;;;;5051031;28;20179;-66
2022/05/09 02:08:30;;;;;;;8.03;5.73;;;9.90;99.90;;;;;;5051721;28;20690;-66
2022/05/09 02:10:56;;;;;;;78.27;30.47;;;9.90;99.90;;;;;;5049934;28;20182;-66
2022/05/09 02:13:21;;;;;;;10.07;6.43;;;9.90;99.90;;;;;;5051300;28;20214;-66
2022/05/09 02:15:47;;;;;;;6.67;5.73;;;9.80;99.90;;;;;;5050996;28;20633;-66
2022/05/09 02:18:12;;;;;;;12.83;6.60;;;9.80;99.90;;;;;;5051387;28;20190;-66
2022/05/09 02:20:38;;;;;;;5.93;5.53;;;9.70;99.90;;;;;;5051255;28;20217;-66
2022/05/09 02:23:04;;;;;;;7.63;7.03;;;9.70;99.90;;;;;;5050062;28;20236;-66
2022/05/09 02:25:30;;;;;;;11.33;6.90;;;9.60;99.90;;;;;;5049482;28;20234;-66
2022/05/09 02:28:00;;;;;;;47.63;43.30;;;9.60;99.90;;;;;;5051456;28;20179;-66
2022/05/09 02:30:27;;;;;;;6.97;6.37;;;9.40;99.90;;;;;;5051392;28;20237;-66
2022/05/09 02:32:53;;;;;;;9.17;6.40;;;9.40;99.90;;;;;;5051114;28;20214;-66
2022/05/09 02:35:21;;;;;;;8.00;7.23;;;9.40;99.90;;;;;;5050982;28;20182;-66
2022/05/09 02:37:48;;;;;;;168.53;31.80;;;9.40;99.90;;;;;;5051684;28;20224;-66
2022/05/09 02:40:15;;;;;;;56.07;17.20;;;9.40;99.90;;;;;;5054768;28;20214;-66
2022/05/09 02:42:41;;;;;;;7.23;6.67;;;9.30;99.90;;;;;;5055179;28;20171;-66
2022/05/09 02:45:08;;;;;;;8.00;7.00;;;9.40;99.90;;;;;;5053535;28;20179;-66
2022/05/09 02:47:33;;;;;;;272.07;67.20;;;9.30;99.90;;;;;;5054852;28;20182;-66
2022/05/09 02:49:59;;;;;;;7.33;6.60;;;9.30;99.90;;;;;;5054739;28;20210;-66
2022/05/09 02:52:24;;;;;;;6.83;6.23;;;9.30;99.90;;;;;;5054634;28;20289;-66
2022/05/09 02:54:51;;;;;;;7.20;6.67;;;9.30;99.90;;;;;;5054280;28;20182;-66
2022/05/09 02:57:17;;;;;;;77.27;70.53;;;9.20;99.90;;;;;;5053220;28;20229;-66
2022/05/09 02:59:43;;;;;;;7.93;7.23;;;9.30;99.90;;;;;;5054831;28;20628;-66
2022/05/09 03:02:09;;;;;;;8.90;7.87;;;9.20;99.90;;;;;;5054960;28;20349;-66
2022/05/09 03:04:41;;;;;;;7.53;6.93;;;9.10;99.90;;;;;;5052979;28;20640;-66
2022/05/09 03:07:09;;;;;;;6.80;6.20;;;9.10;99.90;;;;;;5054500;28;20555;-66
2022/05/09 03:09:36;;;;;;;7.17;6.63;;;9.00;99.90;;;;;;5054258;28;20205;-66
2022/05/09 03:12:03;;;;;;;11.20;10.40;;;9.00;99.90;;;;;;5054543;28;20198;-66
2022/05/09 03:14:30;;;;;;;7.73;7.03;;;9.00;99.90;;;;;;5053985;28;20521;-66
2022/05/09 03:16:56;;;;;;;8.20;7.37;;;8.90;99.90;;;;;;5054142;28;20171;-66
2022/05/09 03:19:21;;;;;;;7.63;7.03;;;8.90;99.90;;;;;;5052562;28;20664;-66
2022/05/09 03:21:48;;;;;;;9.87;7.10;;;8.90;99.90;;;;;;5054367;28;20213;-66
2022/05/09 03:24:14;;;;;;;7.63;6.90;;;8.90;99.90;;;;;;5053806;28;20266;-66
2022/05/09 03:26:39;;;;;;;7.87;7.27;;;8.80;99.90;;;;;;5052516;28;20265;-66
2022/05/09 03:29:05;;;;;;;9.93;7.47;;;8.80;99.90;;;;;;5053257;28;20260;-66
2022/05/09 03:31:31;;;;;;;11.30;7.10;;;8.70;99.90;;;;;;5053894;28;20187;-66
2022/05/09 03:33:57;;;;;;;8.30;7.50;;;8.70;99.90;;;;;;5053963;28;20181;-66
2022/05/09 03:36:23;;;;;;;7.80;7.10;;;8.70;99.90;;;;;;5053772;28;20546;-66
2022/05/09 03:38:48;;;;;;;8.03;7.43;;;8.70;99.90;;;;;;5054371;28;20211;-67
2022/05/09 03:41:14;;;;;;;8.33;7.47;;;8.70;99.90;;;;;;5053294;28;20244;-67
2022/05/09 03:43:40;;;;;;;14.57;8.67;;;8.70;99.90;;;;;;5054132;28;20171;-66
2022/05/09 03:46:06;;;;;;;8.67;7.97;;;8.60;99.90;;;;;;5052212;28;20269;-67
2022/05/09 03:48:31;;;;;;;9.10;8.50;;;8.50;99.90;;;;;;5052324;28;20213;-67
2022/05/09 03:50:57;;;;;;;9.47;8.77;;;8.50;99.90;;;;;;5051424;28;20186;-65
2022/05/09 03:53:26;;;;;;;9.30;8.30;;;8.50;99.90;;;;;;5053455;28;20281;-67
2022/05/09 03:55:52;;;;;;;9.70;8.90;;;8.50;99.90;;;;;;5053037;28;20185;-67
2022/05/09 03:58:18;;;;;;;11.07;8.60;;;8.60;99.90;;;;;;5053574;28;20181;-67
2022/05/09 04:00:43;;;;;;;9.23;8.33;;;8.60;99.90;;;;;;5059815;28;20182;-66
2022/05/09 04:03:09;;;;;;;10.03;8.63;;;8.60;99.90;;;;;;5071832;28;20166;-65
2022/05/09 04:05:36;;;;;;;9.40;8.50;;;8.60;99.90;;;;;;5074358;28;20171;-67
2022/05/09 04:08:05;;;;;;;8.87;7.97;;;8.60;99.90;;;;;;5074432;28;20182;-65
2022/05/09 04:10:34;;;;;;;9.37;8.40;;;8.60;99.90;;;;;;5068565;28;20183;-67
2022/05/09 04:13:00;;;;;;;8.53;7.70;;;8.60;99.90;;;;;;5053761;28;20656;-67
2022/05/09 04:18:12;;;;;;;9.10;8.30;;;8.90;99.90;;;;;;5053533;28;20589;-67
2022/05/09 04:20:38;;;;;;;9.33;8.20;;;8.90;99.90;;;;;;5052972;28;20178;-67
2022/05/09 04:23:04;;;;;;;9.50;8.60;;;8.80;99.90;;;;;;5052819;28;20187;-67
2022/05/09 04:25:33;;;;;;;8.73;8.00;;;8.80;99.90;;;;;;5052742;28;20182;-67
2022/05/09 04:28:05;;;;;;;9.13;7.90;;;8.80;99.90;;;;;;5052804;28;20187;-67
2022/05/09 04:30:32;;;;;;;8.23;7.50;;;8.90;99.90;;;;;;5053030;28;20179;-67
2022/05/09 04:32:58;;;;;;;11.63;8.07;;;9.00;99.90;;;;;;5052827;28;20668;-67
2022/05/09 04:35:24;;;;;;;8.73;7.87;;;9.10;99.90;;;;;;5052266;28;20251;-66
2022/05/09 04:37:52;;;;;;;8.63;7.83;;;9.10;99.90;;;;;;5052564;28;20179;-66
2022/05/09 04:40:21;;;;;;;200.30;27.93;;;9.30;99.90;;;;;;5052569;28;20203;-67
2022/05/09 04:42:47;;;;;;;9.47;7.90;;;9.50;99.90;;;;;;5052485;28;20179;-67
2022/05/09 04:45:14;;;;;;;8.07;7.37;;;9.80;99.90;;;;;;5052138;28;20182;-67
2022/05/09 04:47:41;;;;;;;8.13;7.43;;;10.10;99.90;;;;;;5052651;28;20182;-66
2022/05/09 04:50:09;;;;;;;8.10;7.40;;;10.40;99.90;;;;;;5051996;28;20260;-67
2022/05/09 04:52:35;;;;;;;7.43;6.93;;;10.70;99.90;;;;;;5052139;28;20206;-67
2022/05/09 04:55:00;;;;;;;8.00;7.27;;;10.90;99.90;;;;;;5051596;28;20179;-66
2022/05/09 04:57:26;;;;;;;9.07;7.47;;;11.10;99.90;;;;;;5051920;28;20179;-66
2022/05/09 04:59:52;;;;;;;7.87;7.17;;;11.30;99.90;;;;;;5050874;28;20198;-67
2022/05/09 05:02:18;;;;;;;7.67;6.87;;;11.50;99.90;;;;;;5051160;28;20217;-66
2022/05/09 05:04:43;;;;;;;8.10;7.30;;;11.60;99.90;;;;;;5051478;28;20182;-67
2022/05/09 05:07:09;;;;;;;37.20;11.20;;;11.80;99.90;;;;;;5069317;28;20182;-67
2022/05/09 05:09:35;;;;;;;8.03;7.30;;;11.90;99.90;;;;;;5071759;28;20297;-66
2022/05/09 05:12:01;;;;;;;6.87;6.27;;;12.00;99.90;;;;;;5071503;28;20197;-67
2022/05/09 05:14:27;;;;;;;7.50;6.30;;;12.20;99.90;;;;;;5059964;28;20274;-67
2022/05/09 05:16:59;;;;;;;7.63;6.97;;;12.20;99.90;;;;;;5051320;28;20274;-67
2022/05/09 05:19:28;;;;;;;7.03;6.33;;;12.40;99.90;;;;;;5051755;28;20274;-66
2022/05/09 05:21:56;;;;;;;6.87;6.10;;;12.50;99.90;;;;;;5051596;28;20560;-67
2022/05/09 05:24:22;;;;;;;6.40;6.00;;;12.70;99.90;;;;;;5051498;28;20171;-67
2022/05/09 05:26:48;;;;;;;8.70;6.43;;;12.90;99.90;;;;;;5051030;28;20632;-67
2022/05/09 05:29:15;;;;;;;7.57;6.17;;;13.00;99.90;;;;;;5050952;28;20205;-67
2022/05/09 05:31:41;;;;;;;7.53;6.77;;;13.10;99.90;;;;;;5051628;28;20542;-67
2022/05/09 05:34:06;;;;;;;6.87;6.17;;;13.20;99.90;;;;;;5051582;28;20659;-67
2022/05/09 05:36:32;;;;;;;6.67;6.10;;;13.10;99.90;;;;;;5050955;28;20186;-67
2022/05/09 05:38:57;;;;;;;7.07;6.03;;;13.00;99.90;;;;;;5050275;28;20218;-67
2022/05/09 05:41:23;;;;;;;7.47;6.77;;;13.10;99.90;;;;;;5051315;28;20580;-66
2022/05/09 05:43:49;;;;;;;8.20;7.60;;;13.30;99.90;;;;;;5051540;28;20181;-68
2022/05/09 05:46:15;;;;;;;7.87;7.13;;;13.60;99.90;;;;;;5050698;28;20232;-67
2022/05/09 05:48:41;;;;;;;7.13;5.80;;;13.80;99.90;;;;;;5049597;28;20206;-68
2022/05/09 05:51:07;;;;;;;6.03;5.63;;;14.20;99.90;;;;;;5051185;28;20178;-67
2022/05/09 05:53:34;;;;;;;338.83;44.83;;;14.60;99.90;;;;;;5050761;28;20555;-67
2022/05/09 05:56:00;;;;;;;6.80;6.00;;;14.90;99.90;;;;;;5051194;28;20171;-67
2022/05/09 05:58:28;;;;;;;7.17;6.30;;;15.30;99.90;;;;;;5050755;28;20199;-66
2022/05/09 06:00:56;;;;;;;7.40;6.30;;;15.60;99.90;;;;;;5051088;28;20171;-66
2022/05/09 06:03:22;;;;;;;8.73;6.80;;;15.90;99.90;;;;;;5050637;28;20270;-66
2022/05/09 06:05:48;;;;;;;6.60;6.10;;;16.30;99.90;;;;;;5050850;28;20257;-66
2022/05/09 06:08:14;;;;;;;6.37;5.87;;;16.40;99.90;;;;;;5050540;28;20190;-66
2022/05/09 06:10:40;;;;;;;6.73;6.33;;;16.70;99.90;;;;;;5051092;28;20174;-65
2022/05/09 06:13:06;;;;;;;6.80;6.20;;;17.10;99.90;;;;;;5051568;28;20236;-67
2022/05/09 06:15:33;;;;;;;6.67;6.17;;;17.50;99.90;;;;;;5054605;28;20847;-66
2022/05/09 06:18:08;;;;;;;6.67;5.67;;;17.60;99.90;;;;;;5054800;28;20182;-66
2022/05/09 06:20:36;;;;;;;6.27;5.83;;;17.80;99.90;;;;;;5055096;28;20177;-66
2022/05/09 06:23:03;;;;;;;6.43;5.87;;;18.20;99.90;;;;;;5054584;28;20178;-66
2022/05/09 06:25:30;;;;;;;6.40;5.87;;;18.40;99.90;;;;;;5054422;28;20224;-66
2022/05/09 06:27:58;;;;;;;6.47;5.97;;;18.60;99.90;;;;;;5054983;28;20832;-66
2022/05/09 06:30:25;;;;;;;6.60;6.10;;;18.70;99.90;;;;;;5054361;28;20195;-66
2022/05/09 06:32:50;;;;;;;6.50;6.00;;;18.90;99.90;;;;;;5053886;28;20214;-66
2022/05/09 06:35:20;;;;;;;6.40;5.90;;;19.00;99.90;;;;;;5054023;28;20316;-66
2022/05/09 06:37:50;;;;;;;6.87;6.27;;;19.20;99.90;;;;;;5053671;28;20187;-66
2022/05/09 06:40:16;;;;;;;5.93;5.43;;;19.50;99.90;;;;;;5055552;28;20213;-67
2022/05/09 06:42:42;;;;;;;5.63;5.23;;;19.70;99.90;;;;;;5054075;28;20206;-67
2022/05/09 06:45:08;;;;;;;5.63;5.23;;;19.80;99.90;;;;;;5054106;28;20214;-67
2022/05/09 06:47:35;;;;;;;5.77;5.13;;;19.80;99.90;;;;;;5053188;28;20540;-67
2022/05/09 06:50:02;;;;;;;5.80;5.30;;;19.90;99.90;;;;;;5054592;28;20437;-67
2022/05/09 06:52:28;;;;;;;6.90;6.00;;;19.90;99.90;;;;;;5053815;28;20253;-67
2022/05/09 06:54:54;;;;;;;6.60;5.75;;;20.10;99.90;;;;;;5054049;28;20202;-67
2022/05/09 06:57:19;;;;;;;5.90;5.40;;;20.30;99.90;;;;;;5053832;28;20181;-67
2022/05/09 06:59:47;;;;;;;8.63;5.67;;;20.60;99.90;;;;;;5052751;28;20285;-67
2022/05/09 07:02:13;;;;;;;5.20;4.70;;;20.90;99.90;;;;;;5053964;28;20183;-67
2022/05/09 07:04:39;;;;;;;5.90;5.45;;;21.00;99.90;;;;;;5053846;28;20537;-67
2022/05/09 07:07:06;;;;;;;5.85;5.35;;;21.20;99.90;;;;;;5067510;28;20182;-67
2022/05/09 07:09:32;;;;;;;8.50;5.45;;;21.50;99.90;;;;;;5066675;28;20206;-67
2022/05/09 07:11:57;;;;;;;5.30;4.80;;;21.30;99.90;;;;;;5054020;28;20863;-66
2022/05/09 07:14:23;;;;;;;5.45;4.90;;;21.40;99.90;;;;;;5053584;28;20269;-67
2022/05/09 07:16:49;;;;;;;7.55;4.55;;;21.50;99.90;;;;;;5053959;28;20171;-67
2022/05/09 07:19:16;;;;;;;15.20;5.50;;;21.60;99.90;;;;;;5052818;28;20726;-66
2022/05/09 07:21:42;;;;;;;5.22;4.72;;;21.70;99.90;;;;;;5053948;28;20224;-65
2022/05/09 07:24:08;;;;;;;5.72;4.13;;;22.10;99.90;;;;;;5053267;28;20566;-66
2022/05/09 07:26:35;;;;;;;6.63;5.10;;;22.50;99.90;;;;;;5053212;28;20167;-66
2022/05/09 07:29:00;;;;;;;7.20;5.03;;;22.40;99.90;;;;;;5053381;28;20206;-65
2022/05/09 07:31:26;;;;;;;4.68;4.38;;;22.50;99.90;;;;;;5053310;28;20186;-65
2022/05/09 07:33:52;;;;;;;5.53;4.70;;;22.80;99.90;;;;;;5051527;28;20269;-67
2022/05/09 07:36:17;;;;;;;5.95;4.18;;;22.90;99.90;;;;;;5052897;28;20240;-66
2022/05/09 07:38:43;;;;;;;4.45;3.83;;;22.70;99.90;;;;;;5053094;28;20664;-66
2022/05/09 07:41:10;;;;;;;4.95;4.45;;;22.60;99.90;;;;;;5053407;28;20173;-66
2022/05/09 07:43:35;;;;;;;4.78;4.10;;;22.50;99.90;;;;;;5053364;28;20258;-66
2022/05/09 07:46:01;;;;;;;5.25;3.90;;;22.70;99.90;;;;;;5069649;28;20264;-66
2022/05/09 07:48:28;;;;;;;5.25;4.22;;;22.80;99.90;;;;;;5068801;28;20631;-66
2022/05/09 07:50:56;;;;;;;4.50;4.20;;;23.00;99.90;;;;;;5053313;28;20209;-66
2022/05/09 07:53:26;;;;;;;5.40;4.20;;;22.70;99.90;;;;;;5053153;28;20675;-67
2022/05/09 07:55:51;;;;;;;4.00;3.60;;;22.90;99.90;;;;;;5052967;28;20258;-67
2022/05/09 07:58:18;;;;;;;4.30;3.90;;;23.30;99.90;;;;;;5052921;28;20209;-66
2022/05/09 08:00:45;;;;;;;4.20;3.88;;;23.40;99.90;;;;;;5051515;28;20183;-66
2022/05/09 08:03:20;;;;;;;4.82;4.22;;;23.40;99.90;;;;;;5051614;28;20178;-66
2022/05/09 08:05:45;;;;;;;7.45;4.30;;;23.50;99.90;;;;;;5052343;28;20644;-66
2022/05/09 08:08:12;;;;;;;4.80;4.25;;;23.70;99.90;;;;;;5052182;28;20265;-67
2022/05/09 08:10:39;;;;;;;4.78;3.97;;;23.80;99.90;;;;;;5052524;28;20186;-66
2022/05/09 08:13:05;;;;;;;3.80;3.50;;;24.10;99.90;;;;;;5051297;28;20289;-66
2022/05/09 08:15:31;;;;;;;4.13;3.83;;;24.50;99.90;;;;;;5052039;28;20676;-66
2022/05/09 08:17:58;;;;;;;4.70;4.30;;;24.80;99.90;;;;;;5052121;28;20183;-66
2022/05/09 08:20:24;;;;;;;4.68;4.20;;;25.10;99.90;;;;;;5052844;28;20191;-66
2022/05/09 08:23:00;;;;;;;4.53;4.13;;;25.30;99.90;;;;;;5052846;28;20175;-67
2022/05/09 08:25:26;;;;;;;4.60;4.22;;;25.40;99.90;;;;;;5052277;28;20185;-66
2022/05/09 08:27:52;;;;;;;4.25;3.90;;;25.40;99.90;;;;;;5052923;28;20175;-66
2022/05/09 08:30:18;;;;;;;8.85;5.10;;;25.40;99.90;;;;;;5052515;28;20190;-69
2022/05/09 08:32:44;;;;;;;5.70;4.35;;;25.70;99.90;;;;;;5052668;28;20195;-65
2022/05/09 08:35:10;;;;;;;4.88;4.20;;;26.00;99.90;;;;;;5051861;28;20409;-65
2022/05/09 08:37:36;;;;;;;4.63;4.25;;;25.90;99.90;;;;;;5052172;28;20186;-65
2022/05/09 08:40:03;;;;;;;11.40;4.22;;;25.90;99.90;;;;;;5052395;28;20207;-66
2022/05/09 08:43:01;;;;;;;6.10;4.28;;;25.90;99.90;;;;;;5052406;28;20678;-66
2022/05/09 08:45:36;;;;;;;3.90;3.50;;;26.10;99.90;;;;;;5051368;28;20205;-66
2022/05/09 08:48:22;;;;;;;4.65;4.22;;;26.10;99.90;;;;;;5052386;28;20351;-66
2022/05/09 08:50:56;;;;;;;4.60;4.20;;;26.50;99.90;;;;;;5052374;28;20199;-66
2022/05/09 08:53:24;;;;;;;5.45;3.97;;;26.70;99.90;;;;;;5052026;28;20664;-66
2022/05/09 08:55:56;;;;;;;5.00;3.90;;;26.80;99.90;;;;;;5034282;28;20461;-66
2022/05/09 08:58:45;;;;;;;6.32;4.20;;;27.00;99.90;;;;;;5052089;28;20238;-67
2022/05/09 09:01:12;;;;;;;6.60;4.65;;;27.40;99.90;;;;;;5052319;28;20163;-66
2022/05/09 09:03:40;;;;;;;6.10;4.10;;;27.10;99.90;;;;;;5052202;28;20173;-66
2022/05/09 09:06:42;;;;;;;4.68;4.38;;;27.00;99.90;;;;;;5051760;28;20207;-67
2022/05/09 09:09:16;;;;;;;6.75;4.50;;;26.90;99.90;;;;;;5051996;28;20194;-67
2022/05/09 09:12:07;;;;;;;5.10;4.47;;;26.50;99.90;;;;;;5051801;28;20170;-66
2022/05/09 09:14:57;;;;;;;4.78;4.47;;;26.50;99.90;;;;;;5051634;28;20167;-66
2022/05/09 09:17:39;;;;;;;4.40;4.00;;;27.10;99.90;;;;;;5051695;28;20198;-66
2022/05/09 09:20:18;;;;;;;4.43;4.13;;;27.60;99.90;;;;;;5051850;28;20270;-67
2022/05/09 09:23:32;;;;;;;4.82;4.35;;;28.10;99.90;;;;;;5051974;28;20178;-67
2022/05/09 09:26:28;;;;;;;4.55;4.15;;;28.30;99.90;;;;;;5042025;28;20198;-68
2022/05/09 09:29:03;;;;;;;4.90;4.32;;;28.00;99.90;;;;;;5051722;28;20199;-67
2022/05/09 09:31:34;;;;;;;5.25;4.30;;;28.20;99.90;;;;;;5051365;28;20178;-67
2022/05/09 09:34:11;;;;;;;4.65;3.90;;;28.30;99.90;;;;;;5051513;28;20545;-66
2022/05/09 09:36:48;;;;;;;4.43;3.95;;;28.50;99.90;;;;;;5051577;28;20182;-67
2022/05/09 09:39:19;;;;;;;6.45;4.93;;;28.70;99.90;;;;;;5085054;22;20248;-64
2022/05/09 09:41:46;;;;;;;6.68;4.72;;;28.60;99.90;;;;;;5075445;28;20169;-64
2022/05/09 09:44:16;;;;;;;6.30;4.47;;;28.70;99.90;;;;;;5075779;28;20199;-64
2022/05/09 09:47:03;;;;;;;4.53;4.13;;;29.00;99.90;;;;;;5087363;28;20224;-64
2022/05/09 09:49:29;;;;;;;8.57;5.10;;;29.10;99.90;;;;;;5072426;28;20213;-63
2022/05/09 09:51:57;;;;;;;5.55;4.80;;;29.10;99.90;;;;;;5088159;28;20162;-63
2022/05/09 09:54:30;;;;;;;4.57;3.90;;;29.00;99.90;;;;;;5072564;28;20212;-64
2022/05/09 09:56:56;;;;;;;5.88;3.83;;;29.30;99.90;;;;;;5072295;28;20260;-62
2022/05/09 09:59:24;;;;;;;4.32;3.92;;;29.70;99.90;;;;;;5072040;28;20649;-64
2022/05/09 10:02:07;;;;;;;4.55;4.15;;;29.70;99.90;;;;;;5071923;28;20162;-63
2022/05/09 10:04:33;;;;;;;5.63;4.38;;;29.80;99.90;;;;;;5071841;28;20174;-63
2022/05/09 10:07:06;;;;;;;4.63;4.20;;;30.00;99.90;;;;;;5072585;28;20542;-63
2022/05/09 10:09:35;;;;;;;5.82;4.57;;;30.10;99.90;;;;;;5071950;28;20197;-63
2022/05/09 10:12:25;;;;;;;4.97;4.47;;;30.10;99.90;;;;;;5072071;28;20194;-63
2022/05/09 10:14:52;;;;;;;4.20;3.90;;;29.70;99.90;;;;;;5071770;28;20182;-63
2022/05/09 10:17:21;;;;;;;6.07;4.47;;;29.80;99.90;;;;;;5071973;28;20192;-63
2022/05/09 10:19:48;;;;;;;4.88;4.47;;;29.90;99.90;;;;;;5071022;28;20195;-63
2022/05/09 10:25:26;;;;;;;5.00;4.60;;;29.80;99.90;;;;;;5091989;28;20204;-63
2022/05/09 10:28:18;;;;;;;4.72;4.32;;;29.30;99.90;;;;;;5076971;28;20185;-64
2022/05/09 10:30:48;;;;;;;5.40;4.68;;;29.70;99.90;;;;;;5072063;28;20724;-64
2022/05/09 10:33:33;;;;;;;4.60;4.22;;;30.00;99.90;;;;;;5072299;28;20205;-64
2022/05/09 10:36:04;;;;;;;5.07;4.53;;;30.30;99.90;;;;;;5072695;28;20177;-64
2022/05/09 10:38:50;;;;;;;4.00;3.70;;;30.30;99.90;;;;;;5073219;28;20253;-65
2022/05/09 10:41:34;;;;;;;4.30;3.95;;;30.60;99.90;;;;;;5088693;28;20174;-64
2022/05/09 10:44:17;;;;;;;4.43;4.03;;;30.80;99.90;;;;;;5090065;28;20181;-65
2022/05/09 10:46:52;;;;;;;5.20;4.40;;;30.60;99.90;;;;;;5088743;28;20176;-64
2022/05/09 10:49:43;;;;;;;5.07;4.65;;;30.90;99.90;;;;;;5090314;28;20196;-65
2022/05/09 10:52:29;;;;;;;5.40;4.13;;;30.90;99.20;;;;;;5062509;28;20214;-65
2022/05/09 10:55:05;;;;;;;4.32;3.92;;;30.90;99.90;;;;;;5087059;28;20189;-64
2022/05/09 10:57:54;;;;;;;3.92;3.63;;;30.90;98.40;;;;;;5084489;28;20202;-64
2022/05/09 11:00:26;;;;;;;4.15;3.85;;;31.20;99.90;;;;;;5077420;28;20205;-64
2022/05/09 11:02:54;;;;;;;10.55;4.72;;;31.30;98.90;;;;;;5075023;28;20631;-63
2022/05/09 11:05:22;;;;;;;4.82;4.43;;;30.90;98.00;;;;;;5073840;28;20182;-64
2022/05/09 11:08:07;;;;;;;5.22;4.32;;;30.50;98.40;;;;;;5074396;28;20174;-63
2022/05/09 11:10:49;;;;;;;4.80;4.40;;;30.50;99.20;;;;;;5074465;28;20194;-63
2022/05/09 11:13:15;;;;;;;4.63;4.22;;;30.60;98.60;;;;;;5074179;28;20562;-64
2022/05/09 11:16:08;;;;;;;4.78;4.28;;;31.00;99.90;;;;;;5073857;28;20235;-64
2022/05/09 11:19:04;;;;;;;4.22;3.92;;;31.20;97.80;;;;;;5072919;28;20596;-65
2022/05/09 11:21:47;;;;;;;4.82;4.45;;;31.40;98.10;;;;;;5073284;28;20220;-64
2022/05/09 11:24:32;;;;;;;5.72;4.82;;;31.40;97.80;;;;;;5073963;28;20174;-64
2022/05/09 11:27:34;;;;;;;4.32;4.03;;;31.50;98.80;;;;;;5074249;28;20181;-64
2022/05/09 11:30:20;;;;;;;6.40;4.47;;;31.40;99.30;;;;;;5074234;28;20177;-64
2022/05/09 11:33:11;;;;;;;5.50;5.07;;;31.30;96.30;;;;;;5073647;28;20662;-64
2022/05/09 11:35:37;;;;;;;4.60;4.30;;;31.40;95.10;;;;;;5073210;28;20186;-64
2022/05/09 11:38:17;;;;;;;4.68;4.28;;;31.70;95.90;;;;;;5072842;28;20704;-66
2022/05/09 11:40:59;;;;;;;4.95;4.43;;;32.20;96.40;;;;;;5074061;28;20241;-64
2022/05/09 11:43:45;;;;;;;3.80;3.50;;;32.30;94.90;;;;;;5073711;28;20169;-64
2022/05/09 11:46:30;;;;;;;4.53;3.75;;;32.30;94.60;;;;;;5073490;28;20186;-64
2022/05/09 11:49:23;;;;;;;4.47;4.07;;;32.50;95.00;;;;;;5074073;28;20281;-64
2022/05/09 11:51:53;;;;;;;5.18;4.07;;;32.30;92.90;;;;;;5073687;28;20174;-63
2022/05/09 11:54:21;;;;;;;4.75;4.00;;;32.20;95.10;;;;;;5073741;28;20167;-63
2022/05/09 11:56:54;;;;;;;3.83;3.63;;;32.30;93.30;;;;;;5073280;28;20173;-63
2022/05/09 11:59:33;;;;;;;3.85;3.65;;;32.40;92.40;;;;;;5073435;28;20217;-64
2022/05/09 12:02:03;;;;;;;6.55;3.80;;;32.50;94.30;;;;;;5073532;28;20174;-64
2022/05/09 12:04:41;;;;;;;4.55;4.05;;;32.50;92.00;;;;;;5073105;28;20170;-65
2022/05/09 12:07:28;;;;;;;5.35;4.35;;;32.20;92.60;;;;;;5073605;28;20604;-64
2022/05/09 12:10:28;;;;;;;4.90;4.50;;;32.10;91.10;;;;;;5073443;28;20200;-64
2022/05/09 12:12:59;;;;;;;5.78;4.82;;;32.20;93.70;;;;;;5061816;28;20221;-64
2022/05/09 12:15:24;;;;;;;5.55;4.30;;;32.40;93.10;;;;;;5072817;28;20202;-64
2022/05/09 12:18:00;;;;;;;5.45;4.13;;;32.60;92.30;;;;;;5073057;28;20255;-64
2022/05/09 12:20:29;;;;;;;5.80;4.57;;;32.40;92.00;;;;;;5072903;28;20557;-64
2022/05/09 12:23:21;;;;;;;5.00;4.60;;;32.30;91.90;;;;;;5073406;28;20623;-65
2022/05/09 12:25:46;;;;;;;5.22;4.10;;;32.20;91.20;;;;;;5046768;28;20193;-65
2022/05/09 12:28:20;;;;;;;4.07;3.78;;;32.60;91.50;;;;;;5072629;28;20174;-64
2022/05/09 12:30:54;;;;;;;11.48;3.92;;;33.00;91.40;;;;;;5072811;28;20244;-64
2022/05/09 12:33:37;;;;;;;4.43;4.07;;;33.00;88.70;;;;;;5072437;28;20675;-64
2022/05/09 12:36:10;;;;;;;6.05;4.32;;;33.00;90.60;;;;;;5072419;28;20177;-64
2022/05/09 12:38:39;;;;;;;5.18;3.67;;;33.00;90.90;;;;;;5072591;28;20241;-65
2022/05/09 12:41:12;;;;;;;4.03;3.67;;;33.40;91.40;;;;;;5071419;28;20715;-64
2022/05/09 12:43:43;;;;;;;4.55;4.25;;;33.40;90.00;;;;;;5072896;28;20185;-65
2022/05/09 12:46:22;;;;;;;5.03;4.63;;;33.20;90.50;;;;;;5073533;28;20258;-64
2022/05/09 12:48:50;;;;;;;5.40;4.93;;;32.90;91.00;;;;;;5072764;28;20217;-64
2022/05/09 12:51:16;;;;;;;7.68;4.25;;;33.00;90.00;;;;;;5072397;28;20174;-65
2022/05/09 12:53:42;;;;;;;4.72;4.28;;;33.30;89.50;;;;;;5072425;28;20270;-64
2022/05/09 12:56:12;;;;;;;4.57;4.28;;;33.30;87.10;;;;;;5072031;28;20158;-64
2022/05/09 12:58:40;;;;;;;4.30;4.00;;;33.00;90.40;;;;;;5072548;28;20550;-64
2022/05/09 13:01:19;;;;;;;4.82;4.43;;;32.80;90.50;;;;;;5072551;28;20673;-64
2022/05/09 13:03:58;;;;;;;8.13;4.57;;;32.70;88.50;;;;;;5072279;28;20209;-65
2022/05/09 13:06:30;;;;;;;4.75;4.45;;;32.30;91.30;;;;;;5070283;28;20280;-64
2022/05/09 13:08:57;;;;;;;4.95;4.55;;;32.40;90.70;;;;;;5072226;28;20186;-64
2022/05/09 13:11:32;;;;;;;4.35;3.95;;;32.20;86.60;;;;;;5071984;28;20253;-64
2022/05/09 13:14:24;;;;;;;4.82;4.45;;;31.90;90.10;;;;;;5072007;28;20562;-64